Pagrindinis puslapis
METAR-TAF:

METAR-TAF

Oro uostai :

Kantas, Vietnamas

platuma: 10-05-07N, ilguma: 105-42-43E, Aukštis: 3 m

Dabartinis oras

Ataskaita buvo paskelbta 37 minutes, ne 21:00 UTC
Vėjas 2 kt nuo kintamojo kryptimis
Temperatūra 25°C
Drėgmė 100%
Slėgis 1011 hPa
Matomumas: 5000 m
Mažai debesys ne aukštis 1500 ft
rūkana

METAR: VVCT 122100Z VRB02KT 5000 BR FEW015 25/25 Q1011 NOSIG

Laikas: 04:37 (21:37 UTC)

Prognozė

Ataskaita buvo paskelbta 4 valandos ir 37 minutes, ne 17:00 UTC
Prognozė galioja nuo 12 metu 18 UTC su 13 metu 18 UTC
Vėjas 3 kt nuo kintamojo kryptimis
Matomumas 10 km arba daugiau
Išsisklaidę debesys ne aukštis 1500 ft
Išsisklaidę debesys ne aukštis 4000 ft
Tapsmas
nuo 12 metu 22 UTC su 12 metu 23 UTC
Vėjas 12 kt iš Rytų

TAF: VVCT 121700Z 1218/1318 VRB03KT 9999 SCT015 SCT040 BECMG 1222/1223 08012KT

Orai ataskaitas ir orų prognozės (METAR, TAF).

turimą stotys yra geltonos ir raudonos taškus žemėlapyje.

Perkelti pele per norėdami pamatyti stoties vardą.

Tada spustelėkite, norėdami matyti oro stebėjimo ir prognozės.

Norėdami pakeisti žemėlapį: spustelėkite ant žalios mygtukų su juodo kryžiaus žemyn,; žalią mygtuką su brūkšneliu, jei norite nutolinti; arba žalių rodyklių gretimoms žemėlapius.


METAR-TAF: